Perdue Hill, Alabama
Current Conditions -  °F | °C
As of 11:53 AM on Thursday 27 Nov 2014 (Local Time) from KGZH Reporting Station
Clear Clear  
Wind Chill: 55°   Ceiling: Unl
Heat Index: 55°   Visibility: 10mi
Dew Point: 30°   Wind: 15mph
Humidity: 38%   Direction: 340°NNW
Pressure: 30.37"   Gusts: 21mph
Location:  31.51°N, 87.49°W
Report Text: KGZH 271753Z AUTO 34013G18KT 10SM CLR 13/M01 A3037 RMK AO2 SLP282 T01281011 10128 20017 58005
Loading
Personal Weather Stations






























Interactive Weather Map New forecast layout! Learn more

10-Day Weather Forecast

Advertisements
Track Severe Weather on mobile